Chicago Rockford International Airport Chicago,Rockford US
ICAO: KRFD
IATA: RFD
Category: Large
Scheduled Services: Yes

Elevation: 742 ft
TransAlt. 18000 ft.

Airport Communications:
ROCKFORD APP/DEP:121
ATIS:126.7
CLNC DEL:119.25
GND:121.9
KANKAKEE RDO:122.65
ROCKFORD TWR:118.3
UNICOM:122.95

KRFD Zoom In..

Runways:

(A) RW 01 length 8200 ft width 150 ft
ILS 109.30 / hdg 5

(B) RW 07 length 10002 ft width 150 ft
ILS 109.55 / hdg 65

(C) RW 19 length 8200 ft width 150 ft
---- / hdg 185

(D) RW 25 length 10002 ft width 150 ft
---- / hdg 245

Location; KRFD
Day. 21 / Time. 23.54 Zulu
* Altimeter: 29.91
* Temperature: 04° c. 39.2°f.
* Wind from: 100° Speed 04 kn.
Dewpoint: 04° c.
Visibility: 1/8 Statute Miles.
Conditions: Slight Drizzle.Conditions: Fog.

KRFD 212354Z 10004KT 1/8SM R01/3000V3500FT -DZ FG VV002 04/04 A2991 RMK AO2 SFC VIS 1/4 SLP132 DZB33 P0000 60000 T00390039 10044 20039 53004


Wind From 100°
Speed 04 kn.

jpsM music video
CHECK IT OUT

jpsM - It Moves..

 
jpsmedia.com for Web Design  worldairports.se 2018   terms of use